Main page
METAR-TAF:

METAR-TAF

Airports :

Devi Ahilya Bai Holkar Airport

Indore, India

latitude: 22-43N, longitude: 075-48E, elevation: 561 m

Current weather observation

The report was made 3 hours and 44 minutes ago, at 19:00 UTC
Wind 6 kt from the East
Temperature 16°C
Humidity 82%
Pressure 1016 hPa
Visibility: 3000 m
haze

METAR: VAID 041900Z 09006KT 3000 HZ NSC 16/13 Q1016 NOSIG

Time: 04:14 (22:44 UTC)

Forecast

The report was made 2 hours and 44 minutes ago, at 20:00 UTC
Forecast valid from 04 at 21 UTC to 05 at 06 UTC
Wind 5 kt from the Northeast
Visibility: 3000 m
Few clouds at a height of 10000 ft
haze
Becoming
from 05 at 01 UTC to 05 at 03 UTC
Wind 5 kt from the East/Northeast
Visibility: 2000 m
mist, haze
Becoming
from 05 at 04 UTC to 05 at 06 UTC
Wind 10 kt from the East
Visibility: 3000 m
Few clouds at a height of 2500 ft
Scattered clouds at a height of 10000 ft
haze

TAF: VAID 042000Z 0421/0506 05005KT 3000 HZ FEW100 BECMG 0501/0503 07005KT 2000 BR HZ BECMG 0504/0506 09010KT 3000 HZ FEW025 SCT100

Weather observations and forecasts of more than 4000 airports (METAR and TAF reports).

The available stations are represented by yellow and red dots on the map.

Hover mouse over dot to see the name of the station.

Then click to see weather observations and forecasts.

To change the map : click on the green buttons with a black cross to zoom in, on the green button with a dash to zoom out, or on the green arrows for adjacent maps.


METAR-TAF: